sensor_id;sensor_type;location;lat;lon;timestamp;P1;durP1;ratioP1;P2;durP2;ratioP2
11646;SDS011;5880;52.342;9.662;2022-08-16T00:00:33;5.57;;;5.07;;
11646;SDS011;5880;52.342;9.662;2022-08-16T00:03:04;5.78;;;5.28;;
11646;SDS011;5880;52.342;9.662;2022-08-16T00:05:32;5.22;;;4.82;;
11646;SDS011;5880;52.342;9.662;2022-08-16T00:07:58;6.22;;;5.72;;
11646;SDS011;5880;52.342;9.662;2022-08-16T00:10:24;5.97;;;5.32;;
11646;SDS011;5880;52.342;9.662;2022-08-16T00:12:53;5.82;;;5.32;;
11646;SDS011;5880;52.342;9.662;2022-08-16T00:15:22;5.70;;;5.20;;
11646;SDS011;5880;52.342;9.662;2022-08-16T00:17:52;5.55;;;5.05;;
11646;SDS011;5880;52.342;9.662;2022-08-16T00:20:18;5.60;;;5.00;;
11646;SDS011;5880;52.342;9.662;2022-08-16T00:22:45;5.15;;;4.75;;
11646;SDS011;5880;52.342;9.662;2022-08-16T00:25:13;5.78;;;5.22;;
11646;SDS011;5880;52.342;9.662;2022-08-16T00:27:41;5.50;;;5.05;;
11646;SDS011;5880;52.342;9.662;2022-08-16T00:30:08;5.30;;;4.88;;
11646;SDS011;5880;52.342;9.662;2022-08-16T00:32:38;5.65;;;5.15;;
11646;SDS011;5880;52.342;9.662;2022-08-16T00:35:11;6.00;;;5.50;;
11646;SDS011;5880;52.342;9.662;2022-08-16T00:37:41;5.13;;;4.72;;
11646;SDS011;5880;52.342;9.662;2022-08-16T00:40:10;6.20;;;4.97;;
11646;SDS011;5880;52.342;9.662;2022-08-16T00:42:39;4.93;;;4.53;;
11646;SDS011;5880;52.342;9.662;2022-08-16T00:47:38;5.15;;;4.75;;
11646;SDS011;5880;52.342;9.662;2022-08-16T00:50:10;5.00;;;4.50;;
11646;SDS011;5880;52.342;9.662;2022-08-16T00:52:38;5.28;;;4.53;;
11646;SDS011;5880;52.342;9.662;2022-08-16T00:55:05;5.07;;;4.68;;
11646;SDS011;5880;52.342;9.662;2022-08-16T00:57:32;4.90;;;4.50;;
11646;SDS011;5880;52.342;9.662;2022-08-16T00:59:59;4.60;;;4.13;;
11646;SDS011;5880;52.342;9.662;2022-08-16T01:02:26;5.10;;;4.57;;
11646;SDS011;5880;52.342;9.662;2022-08-16T01:04:52;5.00;;;4.57;;
11646;SDS011;5880;52.342;9.662;2022-08-16T01:07:18;4.80;;;4.30;;
11646;SDS011;5880;52.342;9.662;2022-08-16T01:09:44;5.35;;;4.85;;
11646;SDS011;5880;52.342;9.662;2022-08-16T01:12:11;4.95;;;4.55;;
11646;SDS011;5880;52.342;9.662;2022-08-16T01:14:40;5.15;;;4.68;;
11646;SDS011;5880;52.342;9.662;2022-08-16T01:17:14;5.22;;;4.72;;
11646;SDS011;5880;52.342;9.662;2022-08-16T01:19:45;5.22;;;4.82;;
11646;SDS011;5880;52.342;9.662;2022-08-16T01:22:25;5.47;;;4.97;;
11646;SDS011;5880;52.342;9.662;2022-08-16T01:25:02;5.22;;;4.72;;
11646;SDS011;5880;52.342;9.662;2022-08-16T01:27:36;5.55;;;5.05;;
11646;SDS011;5880;52.342;9.662;2022-08-16T01:32:43;5.28;;;4.88;;
11646;SDS011;5880;52.342;9.662;2022-08-16T01:35:12;5.25;;;4.72;;
11646;SDS011;5880;52.342;9.662;2022-08-16T01:37:47;5.05;;;4.60;;
11646;SDS011;5880;52.342;9.662;2022-08-16T01:40:17;5.47;;;4.97;;
11646;SDS011;5880;52.342;9.662;2022-08-16T01:42:47;5.00;;;4.60;;
11646;SDS011;5880;52.342;9.662;2022-08-16T01:45:14;5.50;;;4.78;;
11646;SDS011;5880;52.342;9.662;2022-08-16T01:47:43;5.13;;;4.63;;
11646;SDS011;5880;52.342;9.662;2022-08-16T01:50:12;5.60;;;5.03;;
11646;SDS011;5880;52.342;9.662;2022-08-16T01:52:38;5.80;;;5.30;;
11646;SDS011;5880;52.342;9.662;2022-08-16T01:55:06;5.93;;;4.82;;
11646;SDS011;5880;52.342;9.662;2022-08-16T01:57:33;5.32;;;4.82;;
11646;SDS011;5880;52.342;9.662;2022-08-16T01:59:59;5.30;;;4.78;;
11646;SDS011;5880;52.342;9.662;2022-08-16T02:02:26;5.35;;;4.85;;
11646;SDS011;5880;52.342;9.662;2022-08-16T02:04:52;4.82;;;4.32;;
11646;SDS011;5880;52.342;9.662;2022-08-16T02:07:18;5.18;;;4.75;;
11646;SDS011;5880;52.342;9.662;2022-08-16T02:09:46;5.88;;;5.28;;
11646;SDS011;5880;52.342;9.662;2022-08-16T02:12:13;4.97;;;4.57;;
11646;SDS011;5880;52.342;9.662;2022-08-16T02:14:40;5.20;;;4.80;;
11646;SDS011;5880;52.342;9.662;2022-08-16T02:17:08;5.55;;;4.97;;
11646;SDS011;5880;52.342;9.662;2022-08-16T02:19:37;5.93;;;5.38;;
11646;SDS011;5880;52.342;9.662;2022-08-16T02:22:07;5.65;;;5.20;;
11646;SDS011;5880;52.342;9.662;2022-08-16T02:24:37;5.45;;;4.95;;
11646;SDS011;5880;52.342;9.662;2022-08-16T02:27:04;5.32;;;4.78;;
11646;SDS011;5880;52.342;9.662;2022-08-16T02:29:30;5.55;;;5.07;;
11646;SDS011;5880;52.342;9.662;2022-08-16T02:31:57;5.90;;;5.30;;
11646;SDS011;5880;52.342;9.662;2022-08-16T02:34:23;5.85;;;5.35;;
11646;SDS011;5880;52.342;9.662;2022-08-16T02:36:49;5.90;;;5.40;;
11646;SDS011;5880;52.342;9.662;2022-08-16T02:39:16;5.95;;;5.13;;
11646;SDS011;5880;52.342;9.662;2022-08-16T02:41:43;5.82;;;5.32;;
11646;SDS011;5880;52.342;9.662;2022-08-16T02:44:13;5.88;;;5.30;;
11646;SDS011;5880;52.342;9.662;2022-08-16T02:46:40;5.10;;;4.65;;
11646;SDS011;5880;52.342;9.662;2022-08-16T02:49:07;6.57;;;5.85;;
11646;SDS011;5880;52.342;9.662;2022-08-16T02:51:35;6.20;;;5.65;;
11646;SDS011;5880;52.342;9.662;2022-08-16T02:54:03;5.47;;;4.97;;
11646;SDS011;5880;52.342;9.662;2022-08-16T02:56:31;8.43;;;5.63;;
11646;SDS011;5880;52.342;9.662;2022-08-16T02:58:57;6.80;;;5.70;;
11646;SDS011;5880;52.342;9.662;2022-08-16T03:01:26;6.50;;;5.90;;
11646;SDS011;5880;52.342;9.662;2022-08-16T03:03:55;6.00;;;5.35;;
11646;SDS011;5880;52.342;9.662;2022-08-16T03:06:23;5.88;;;5.15;;
11646;SDS011;5880;52.342;9.662;2022-08-16T03:08:50;5.65;;;5.15;;
11646;SDS011;5880;52.342;9.662;2022-08-16T03:11:16;6.65;;;5.38;;
11646;SDS011;5880;52.342;9.662;2022-08-16T03:13:45;5.13;;;4.72;;
11646;SDS011;5880;52.342;9.662;2022-08-16T03:16:15;6.72;;;4.75;;
11646;SDS011;5880;52.342;9.662;2022-08-16T03:18:41;5.28;;;4.70;;
11646;SDS011;5880;52.342;9.662;2022-08-16T03:21:07;6.13;;;5.53;;
11646;SDS011;5880;52.342;9.662;2022-08-16T03:23:33;5.63;;;4.93;;
11646;SDS011;5880;52.342;9.662;2022-08-16T03:26:00;5.93;;;5.35;;
11646;SDS011;5880;52.342;9.662;2022-08-16T03:28:26;5.38;;;4.88;;
11646;SDS011;5880;52.342;9.662;2022-08-16T03:30:52;5.50;;;5.00;;
11646;SDS011;5880;52.342;9.662;2022-08-16T03:33:18;5.80;;;5.20;;
11646;SDS011;5880;52.342;9.662;2022-08-16T03:35:43;6.35;;;4.97;;
11646;SDS011;5880;52.342;9.662;2022-08-16T03:38:11;5.32;;;4.82;;
11646;SDS011;5880;52.342;9.662;2022-08-16T03:40:40;5.60;;;5.03;;
11646;SDS011;5880;52.342;9.662;2022-08-16T03:43:07;6.00;;;5.40;;
11646;SDS011;5880;52.342;9.662;2022-08-16T03:45:36;5.05;;;4.60;;
11646;SDS011;5880;52.342;9.662;2022-08-16T03:48:05;5.55;;;5.05;;
11646;SDS011;5880;52.342;9.662;2022-08-16T03:50:32;6.63;;;5.68;;
11646;SDS011;5880;52.342;9.662;2022-08-16T03:52:59;6.00;;;5.40;;
11646;SDS011;5880;52.342;9.662;2022-08-16T03:55:25;5.97;;;5.40;;
11646;SDS011;5880;52.342;9.662;2022-08-16T03:57:51;6.20;;;5.70;;
11646;SDS011;5880;52.342;9.662;2022-08-16T04:00:25;5.43;;;4.93;;
11646;SDS011;5880;52.342;9.662;2022-08-16T04:02:54;5.50;;;5.00;;
11646;SDS011;5880;52.342;9.662;2022-08-16T04:05:23;5.40;;;4.90;;
11646;SDS011;5880;52.342;9.662;2022-08-16T04:07:49;5.43;;;4.93;;
11646;SDS011;5880;52.342;9.662;2022-08-16T04:10:15;7.93;;;5.60;;
11646;SDS011;5880;52.342;9.662;2022-08-16T04:12:43;5.40;;;4.90;;
11646;SDS011;5880;52.342;9.662;2022-08-16T04:15:11;5.38;;;4.97;;
11646;SDS011;5880;52.342;9.662;2022-08-16T04:17:41;5.80;;;5.20;;
11646;SDS011;5880;52.342;9.662;2022-08-16T04:20:08;5.47;;;4.97;;
11646;SDS011;5880;52.342;9.662;2022-08-16T04:22:37;5.68;;;5.15;;
11646;SDS011;5880;52.342;9.662;2022-08-16T04:25:04;5.47;;;4.78;;
11646;SDS011;5880;52.342;9.662;2022-08-16T04:27:30;5.65;;;5.15;;
11646;SDS011;5880;52.342;9.662;2022-08-16T04:29:56;5.18;;;4.78;;
11646;SDS011;5880;52.342;9.662;2022-08-16T04:32:23;5.93;;;5.05;;
11646;SDS011;5880;52.342;9.662;2022-08-16T04:34:48;5.80;;;5.30;;
11646;SDS011;5880;52.342;9.662;2022-08-16T04:37:14;5.22;;;4.72;;
11646;SDS011;5880;52.342;9.662;2022-08-16T04:39:40;5.80;;;5.30;;
11646;SDS011;5880;52.342;9.662;2022-08-16T04:42:06;5.85;;;5.25;;
11646;SDS011;5880;52.342;9.662;2022-08-16T04:44:32;5.63;;;5.13;;
11646;SDS011;5880;52.342;9.662;2022-08-16T04:46:58;5.50;;;5.00;;
11646;SDS011;5880;52.342;9.662;2022-08-16T04:49:24;6.25;;;5.65;;
11646;SDS011;5880;52.342;9.662;2022-08-16T04:51:50;5.57;;;5.10;;
11646;SDS011;5880;52.342;9.662;2022-08-16T04:54:16;6.13;;;5.47;;
11646;SDS011;5880;52.342;9.662;2022-08-16T04:56:42;5.68;;;5.18;;
11646;SDS011;5880;52.342;9.662;2022-08-16T04:59:08;5.97;;;5.20;;
11646;SDS011;5880;52.342;9.662;2022-08-16T05:01:35;5.70;;;5.20;;
11646;SDS011;5880;52.342;9.662;2022-08-16T05:04:02;5.20;;;4.80;;
11646;SDS011;5880;52.342;9.662;2022-08-16T05:06:28;6.57;;;5.07;;
11646;SDS011;5880;52.342;9.662;2022-08-16T05:08:55;6.72;;;5.63;;
11646;SDS011;5880;52.342;9.662;2022-08-16T05:11:21;5.82;;;5.22;;
11646;SDS011;5880;52.342;9.662;2022-08-16T05:13:47;6.30;;;5.70;;
11646;SDS011;5880;52.342;9.662;2022-08-16T05:16:14;6.35;;;5.72;;
11646;SDS011;5880;52.342;9.662;2022-08-16T05:18:44;8.73;;;6.10;;
11646;SDS011;5880;52.342;9.662;2022-08-16T05:21:10;6.15;;;5.55;;
11646;SDS011;5880;52.342;9.662;2022-08-16T05:23:36;7.25;;;5.80;;
11646;SDS011;5880;52.342;9.662;2022-08-16T05:26:02;6.10;;;5.60;;
11646;SDS011;5880;52.342;9.662;2022-08-16T05:28:28;6.72;;;5.30;;
11646;SDS011;5880;52.342;9.662;2022-08-16T05:30:54;6.18;;;5.57;;
11646;SDS011;5880;52.342;9.662;2022-08-16T05:33:20;5.65;;;5.00;;
11646;SDS011;5880;52.342;9.662;2022-08-16T05:35:47;5.38;;;4.97;;
11646;SDS011;5880;52.342;9.662;2022-08-16T05:38:14;5.07;;;4.45;;
11646;SDS011;5880;52.342;9.662;2022-08-16T05:40:40;5.20;;;4.70;;
11646;SDS011;5880;52.342;9.662;2022-08-16T05:43:06;5.28;;;4.80;;
11646;SDS011;5880;52.342;9.662;2022-08-16T05:45:31;5.10;;;4.60;;
11646;SDS011;5880;52.342;9.662;2022-08-16T05:47:57;5.10;;;4.70;;
11646;SDS011;5880;52.342;9.662;2022-08-16T05:50:23;4.82;;;4.30;;
11646;SDS011;5880;52.342;9.662;2022-08-16T05:52:49;6.25;;;4.63;;
11646;SDS011;5880;52.342;9.662;2022-08-16T05:55:15;4.75;;;4.35;;
11646;SDS011;5880;52.342;9.662;2022-08-16T05:57:42;5.22;;;4.40;;
11646;SDS011;5880;52.342;9.662;2022-08-16T06:00:10;4.78;;;4.38;;
11646;SDS011;5880;52.342;9.662;2022-08-16T06:02:40;6.88;;;4.55;;
11646;SDS011;5880;52.342;9.662;2022-08-16T06:05:06;4.47;;;4.07;;
11646;SDS011;5880;52.342;9.662;2022-08-16T06:07:33;4.88;;;4.47;;
11646;SDS011;5880;52.342;9.662;2022-08-16T06:09:59;4.68;;;4.28;;
11646;SDS011;5880;52.342;9.662;2022-08-16T06:12:25;4.30;;;3.92;;
11646;SDS011;5880;52.342;9.662;2022-08-16T06:14:53;4.60;;;4.20;;
11646;SDS011;5880;52.342;9.662;2022-08-16T06:17:25;5.20;;;4.47;;
11646;SDS011;5880;52.342;9.662;2022-08-16T06:19:53;4.13;;;3.72;;
11646;SDS011;5880;52.342;9.662;2022-08-16T06:22:19;4.35;;;3.95;;
11646;SDS011;5880;52.342;9.662;2022-08-16T06:24:45;4.90;;;4.35;;
11646;SDS011;5880;52.342;9.662;2022-08-16T06:27:10;4.60;;;4.20;;
11646;SDS011;5880;52.342;9.662;2022-08-16T06:29:37;4.80;;;4.30;;
11646;SDS011;5880;52.342;9.662;2022-08-16T06:32:03;4.45;;;4.05;;
11646;SDS011;5880;52.342;9.662;2022-08-16T06:34:29;4.50;;;4.10;;
11646;SDS011;5880;52.342;9.662;2022-08-16T06:36:55;4.40;;;4.00;;
11646;SDS011;5880;52.342;9.662;2022-08-16T06:39:21;4.50;;;4.03;;
11646;SDS011;5880;52.342;9.662;2022-08-16T06:41:46;4.00;;;3.70;;
11646;SDS011;5880;52.342;9.662;2022-08-16T06:44:12;4.00;;;3.70;;
11646;SDS011;5880;52.342;9.662;2022-08-16T06:46:38;3.97;;;3.67;;
11646;SDS011;5880;52.342;9.662;2022-08-16T06:49:04;4.28;;;3.88;;
11646;SDS011;5880;52.342;9.662;2022-08-16T06:51:34;4.63;;;3.30;;
11646;SDS011;5880;52.342;9.662;2022-08-16T06:54:03;4.22;;;3.83;;
11646;SDS011;5880;52.342;9.662;2022-08-16T06:56:29;3.78;;;3.47;;
11646;SDS011;5880;52.342;9.662;2022-08-16T06:58:55;3.95;;;3.65;;
11646;SDS011;5880;52.342;9.662;2022-08-16T07:01:21;4.10;;;3.78;;
11646;SDS011;5880;52.342;9.662;2022-08-16T07:03:49;3.95;;;3.65;;
11646;SDS011;5880;52.342;9.662;2022-08-16T07:06:15;4.00;;;3.60;;
11646;SDS011;5880;52.342;9.662;2022-08-16T07:08:45;4.10;;;3.70;;
11646;SDS011;5880;52.342;9.662;2022-08-16T07:11:12;5.55;;;5.05;;
11646;SDS011;5880;52.342;9.662;2022-08-16T07:13:40;5.22;;;4.72;;
11646;SDS011;5880;52.342;9.662;2022-08-16T07:16:07;4.30;;;3.92;;
11646;SDS011;5880;52.342;9.662;2022-08-16T07:18:38;4.15;;;3.80;;
11646;SDS011;5880;52.342;9.662;2022-08-16T07:21:06;3.72;;;3.47;;
11646;SDS011;5880;52.342;9.662;2022-08-16T07:23:34;4.10;;;3.80;;
11646;SDS011;5880;52.342;9.662;2022-08-16T07:26:02;3.72;;;3.42;;
11646;SDS011;5880;52.342;9.662;2022-08-16T07:28:31;3.50;;;3.20;;
11646;SDS011;5880;52.342;9.662;2022-08-16T07:30:57;3.63;;;3.38;;
11646;SDS011;5880;52.342;9.662;2022-08-16T07:33:23;3.60;;;3.30;;
11646;SDS011;5880;52.342;9.662;2022-08-16T07:35:49;3.58;;;3.28;;
11646;SDS011;5880;52.342;9.662;2022-08-16T07:38:15;4.28;;;3.80;;
11646;SDS011;5880;52.342;9.662;2022-08-16T07:40:40;3.70;;;3.40;;
11646;SDS011;5880;52.342;9.662;2022-08-16T07:43:06;3.55;;;3.25;;
11646;SDS011;5880;52.342;9.662;2022-08-16T07:45:32;4.03;;;3.72;;
11646;SDS011;5880;52.342;9.662;2022-08-16T07:47:58;3.50;;;3.20;;
11646;SDS011;5880;52.342;9.662;2022-08-16T07:50:24;3.80;;;3.50;;
11646;SDS011;5880;52.342;9.662;2022-08-16T07:52:51;3.72;;;3.42;;
11646;SDS011;5880;52.342;9.662;2022-08-16T07:55:16;3.70;;;3.40;;
11646;SDS011;5880;52.342;9.662;2022-08-16T07:57:43;3.50;;;3.30;;
11646;SDS011;5880;52.342;9.662;2022-08-16T08:00:09;3.83;;;3.53;;
11646;SDS011;5880;52.342;9.662;2022-08-16T08:02:37;4.00;;;3.70;;
11646;SDS011;5880;52.342;9.662;2022-08-16T08:05:03;3.90;;;3.60;;
11646;SDS011;5880;52.342;9.662;2022-08-16T08:07:30;4.00;;;3.70;;
11646;SDS011;5880;52.342;9.662;2022-08-16T08:09:56;3.85;;;3.50;;
11646;SDS011;5880;52.342;9.662;2022-08-16T08:12:22;3.78;;;3.47;;
11646;SDS011;5880;52.342;9.662;2022-08-16T08:14:48;4.45;;;4.00;;
11646;SDS011;5880;52.342;9.662;2022-08-16T08:17:15;4.00;;;3.70;;
11646;SDS011;5880;52.342;9.662;2022-08-16T08:19:41;4.38;;;3.97;;
11646;SDS011;5880;52.342;9.662;2022-08-16T08:22:08;4.03;;;3.72;;
11646;SDS011;5880;52.342;9.662;2022-08-16T08:24:34;4.00;;;3.70;;
11646;SDS011;5880;52.342;9.662;2022-08-16T08:27:03;4.15;;;3.80;;
11646;SDS011;5880;52.342;9.662;2022-08-16T08:29:32;4.40;;;4.00;;
11646;SDS011;5880;52.342;9.662;2022-08-16T08:31:59;4.28;;;3.97;;
11646;SDS011;5880;52.342;9.662;2022-08-16T08:34:26;3.90;;;3.50;;
11646;SDS011;5880;52.342;9.662;2022-08-16T08:36:52;4.68;;;4.10;;
11646;SDS011;5880;52.342;9.662;2022-08-16T08:39:18;4.28;;;3.70;;
11646;SDS011;5880;52.342;9.662;2022-08-16T08:41:44;4.00;;;3.70;;
11646;SDS011;5880;52.342;9.662;2022-08-16T08:44:11;3.80;;;3.55;;
11646;SDS011;5880;52.342;9.662;2022-08-16T08:46:37;4.20;;;3.90;;
11646;SDS011;5880;52.342;9.662;2022-08-16T08:49:04;3.60;;;3.38;;
11646;SDS011;5880;52.342;9.662;2022-08-16T08:51:32;3.60;;;3.40;;
11646;SDS011;5880;52.342;9.662;2022-08-16T08:53:59;3.20;;;3.00;;
11646;SDS011;5880;52.342;9.662;2022-08-16T08:56:27;4.13;;;3.72;;
11646;SDS011;5880;52.342;9.662;2022-08-16T08:58:55;4.00;;;3.70;;
11646;SDS011;5880;52.342;9.662;2022-08-16T09:01:23;3.40;;;3.10;;
11646;SDS011;5880;52.342;9.662;2022-08-16T09:03:55;3.83;;;3.47;;
11646;SDS011;5880;52.342;9.662;2022-08-16T09:06:20;3.90;;;3.50;;
11646;SDS011;5880;52.342;9.662;2022-08-16T09:08:47;3.63;;;3.33;;
11646;SDS011;5880;52.342;9.662;2022-08-16T09:11:12;3.50;;;3.22;;
11646;SDS011;5880;52.342;9.662;2022-08-16T09:13:38;3.75;;;3.45;;
11646;SDS011;5880;52.342;9.662;2022-08-16T09:16:04;3.90;;;3.60;;
11646;SDS011;5880;52.342;9.662;2022-08-16T09:18:30;3.60;;;3.30;;
11646;SDS011;5880;52.342;9.662;2022-08-16T09:20:56;3.35;;;3.10;;
11646;SDS011;5880;52.342;9.662;2022-08-16T09:23:23;3.25;;;2.97;;
11646;SDS011;5880;52.342;9.662;2022-08-16T09:25:49;3.78;;;3.05;;
11646;SDS011;5880;52.342;9.662;2022-08-16T09:28:15;4.10;;;3.70;;
11646;SDS011;5880;52.342;9.662;2022-08-16T09:30:42;4.10;;;3.70;;
11646;SDS011;5880;52.342;9.662;2022-08-16T09:33:08;3.72;;;3.42;;
11646;SDS011;5880;52.342;9.662;2022-08-16T09:35:36;2.92;;;2.72;;
11646;SDS011;5880;52.342;9.662;2022-08-16T09:38:02;4.82;;;3.75;;
11646;SDS011;5880;52.342;9.662;2022-08-16T09:40:28;3.88;;;3.53;;
11646;SDS011;5880;52.342;9.662;2022-08-16T09:42:54;3.78;;;3.47;;
11646;SDS011;5880;52.342;9.662;2022-08-16T09:45:22;3.17;;;2.90;;
11646;SDS011;5880;52.342;9.662;2022-08-16T09:47:49;3.17;;;2.97;;
11646;SDS011;5880;52.342;9.662;2022-08-16T09:50:19;3.17;;;2.88;;
11646;SDS011;5880;52.342;9.662;2022-08-16T09:52:45;3.28;;;2.97;;
11646;SDS011;5880;52.342;9.662;2022-08-16T09:55:11;3.90;;;3.40;;
11646;SDS011;5880;52.342;9.662;2022-08-16T09:57:38;3.25;;;3.03;;
11646;SDS011;5880;52.342;9.662;2022-08-16T10:00:06;3.55;;;3.25;;
11646;SDS011;5880;52.342;9.662;2022-08-16T10:02:34;2.95;;;2.75;;
11646;SDS011;5880;52.342;9.662;2022-08-16T10:05:02;3.50;;;3.28;;
11646;SDS011;5880;52.342;9.662;2022-08-16T10:07:29;4.22;;;2.85;;
11646;SDS011;5880;52.342;9.662;2022-08-16T10:09:55;3.10;;;2.90;;
11646;SDS011;5880;52.342;9.662;2022-08-16T10:12:23;3.70;;;3.40;;
11646;SDS011;5880;52.342;9.662;2022-08-16T10:15:12;3.38;;;3.08;;
11646;SDS011;5880;52.342;9.662;2022-08-16T10:17:47;3.55;;;3.25;;
11646;SDS011;5880;52.342;9.662;2022-08-16T10:20:17;3.60;;;3.30;;
11646;SDS011;5880;52.342;9.662;2022-08-16T10:22:44;3.20;;;2.90;;
11646;SDS011;5880;52.342;9.662;2022-08-16T10:25:10;3.53;;;3.33;;
11646;SDS011;5880;52.342;9.662;2022-08-16T10:27:37;3.08;;;2.88;;
11646;SDS011;5880;52.342;9.662;2022-08-16T10:30:04;3.58;;;3.03;;
11646;SDS011;5880;52.342;9.662;2022-08-16T10:32:31;3.10;;;2.60;;
11646;SDS011;5880;52.342;9.662;2022-08-16T10:34:58;3.47;;;3.00;;
11646;SDS011;5880;52.342;9.662;2022-08-16T10:37:25;3.65;;;3.35;;
11646;SDS011;5880;52.342;9.662;2022-08-16T10:39:51;3.53;;;3.22;;
11646;SDS011;5880;52.342;9.662;2022-08-16T10:42:16;3.97;;;3.58;;
11646;SDS011;5880;52.342;9.662;2022-08-16T10:44:42;5.38;;;3.63;;
11646;SDS011;5880;52.342;9.662;2022-08-16T10:47:08;4.28;;;3.88;;
11646;SDS011;5880;52.342;9.662;2022-08-16T10:49:35;8.52;;;4.68;;
11646;SDS011;5880;52.342;9.662;2022-08-16T10:52:02;16.15;;;9.30;;
11646;SDS011;5880;52.342;9.662;2022-08-16T10:54:28;11.45;;;6.20;;
11646;SDS011;5880;52.342;9.662;2022-08-16T10:56:56;5.30;;;4.30;;
11646;SDS011;5880;52.342;9.662;2022-08-16T10:59:28;4.38;;;3.72;;
11646;SDS011;5880;52.342;9.662;2022-08-16T11:01:55;3.38;;;3.08;;
11646;SDS011;5880;52.342;9.662;2022-08-16T11:04:22;3.85;;;3.22;;
11646;SDS011;5880;52.342;9.662;2022-08-16T11:06:48;3.72;;;3.25;;
11646;SDS011;5880;52.342;9.662;2022-08-16T11:09:13;5.70;;;3.40;;
11646;SDS011;5880;52.342;9.662;2022-08-16T11:11:39;4.55;;;3.42;;
11646;SDS011;5880;52.342;9.662;2022-08-16T11:14:05;3.38;;;3.08;;
11646;SDS011;5880;52.342;9.662;2022-08-16T11:16:31;4.95;;;3.40;;
11646;SDS011;5880;52.342;9.662;2022-08-16T11:18:57;3.25;;;2.95;;
11646;SDS011;5880;52.342;9.662;2022-08-16T11:21:23;11.43;;;6.55;;
11646;SDS011;5880;52.342;9.662;2022-08-16T11:23:50;4.75;;;4.18;;
11646;SDS011;5880;52.342;9.662;2022-08-16T11:26:17;18.85;;;10.93;;
11646;SDS011;5880;52.342;9.662;2022-08-16T11:28:43;10.07;;;7.22;;
11646;SDS011;5880;52.342;9.662;2022-08-16T11:31:10;5.53;;;4.90;;
11646;SDS011;5880;52.342;9.662;2022-08-16T11:33:36;4.00;;;3.70;;
11646;SDS011;5880;52.342;9.662;2022-08-16T11:36:02;4.60;;;4.15;;
11646;SDS011;5880;52.342;9.662;2022-08-16T11:38:28;3.75;;;3.45;;
11646;SDS011;5880;52.342;9.662;2022-08-16T11:40:55;3.42;;;3.13;;
11646;SDS011;5880;52.342;9.662;2022-08-16T11:43:24;3.42;;;3.13;;
11646;SDS011;5880;52.342;9.662;2022-08-16T11:45:59;3.75;;;3.15;;
11646;SDS011;5880;52.342;9.662;2022-08-16T11:48:30;3.40;;;3.10;;
11646;SDS011;5880;52.342;9.662;2022-08-16T11:50:57;3.65;;;3.35;;
11646;SDS011;5880;52.342;9.662;2022-08-16T11:53:24;3.42;;;3.13;;
11646;SDS011;5880;52.342;9.662;2022-08-16T11:55:52;3.30;;;3.10;;
11646;SDS011;5880;52.342;9.662;2022-08-16T11:58:20;3.28;;;3.08;;
11646;SDS011;5880;52.342;9.662;2022-08-16T12:00:51;3.63;;;3.35;;
11646;SDS011;5880;52.342;9.662;2022-08-16T12:03:20;3.67;;;3.38;;
11646;SDS011;5880;52.342;9.662;2022-08-16T12:05:47;3.35;;;3.15;;
11646;SDS011;5880;52.342;9.662;2022-08-16T12:08:13;4.00;;;3.28;;
11646;SDS011;5880;52.342;9.662;2022-08-16T12:10:40;3.17;;;2.97;;
11646;SDS011;5880;52.342;9.662;2022-08-16T12:13:09;3.53;;;3.13;;
11646;SDS011;5880;52.342;9.662;2022-08-16T12:15:35;3.33;;;3.13;;
11646;SDS011;5880;52.342;9.662;2022-08-16T12:18:02;3.53;;;3.22;;
11646;SDS011;5880;52.342;9.662;2022-08-16T12:20:29;3.30;;;3.10;;
11646;SDS011;5880;52.342;9.662;2022-08-16T12:23:00;3.35;;;3.15;;
11646;SDS011;5880;52.342;9.662;2022-08-16T12:25:27;3.35;;;3.15;;
11646;SDS011;5880;52.342;9.662;2022-08-16T12:27:54;3.25;;;3.03;;
11646;SDS011;5880;52.342;9.662;2022-08-16T12:30:22;3.40;;;3.20;;
11646;SDS011;5880;52.342;9.662;2022-08-16T12:32:53;3.75;;;3.10;;
11646;SDS011;5880;52.342;9.662;2022-08-16T12:35:24;3.25;;;3.05;;
11646;SDS011;5880;52.342;9.662;2022-08-16T12:37:51;3.25;;;3.05;;
11646;SDS011;5880;52.342;9.662;2022-08-16T12:40:22;3.67;;;3.38;;
11646;SDS011;5880;52.342;9.662;2022-08-16T12:42:56;3.17;;;2.97;;
11646;SDS011;5880;52.342;9.662;2022-08-16T12:45:26;3.88;;;3.15;;
11646;SDS011;5880;52.342;9.662;2022-08-16T12:47:57;3.30;;;3.05;;
11646;SDS011;5880;52.342;9.662;2022-08-16T12:50:42;3.75;;;3.47;;
11646;SDS011;5880;52.342;9.662;2022-08-16T12:53:08;3.30;;;3.10;;
11646;SDS011;5880;52.342;9.662;2022-08-16T12:55:34;3.40;;;3.10;;
11646;SDS011;5880;52.342;9.662;2022-08-16T12:58:00;3.50;;;3.22;;
11646;SDS011;5880;52.342;9.662;2022-08-16T13:00:27;3.30;;;3.08;;
11646;SDS011;5880;52.342;9.662;2022-08-16T13:02:55;3.85;;;3.42;;
11646;SDS011;5880;52.342;9.662;2022-08-16T13:05:23;3.63;;;3.33;;
11646;SDS011;5880;52.342;9.662;2022-08-16T13:07:50;3.67;;;3.22;;
11646;SDS011;5880;52.342;9.662;2022-08-16T13:10:16;3.42;;;3.22;;
11646;SDS011;5880;52.342;9.662;2022-08-16T13:12:50;3.72;;;3.30;;
11646;SDS011;5880;52.342;9.662;2022-08-16T13:15:19;3.45;;;3.13;;
11646;SDS011;5880;52.342;9.662;2022-08-16T13:17:49;3.58;;;3.28;;
11646;SDS011;5880;52.342;9.662;2022-08-16T13:20:17;3.63;;;3.33;;
11646;SDS011;5880;52.342;9.662;2022-08-16T13:22:48;3.78;;;3.08;;
11646;SDS011;5880;52.342;9.662;2022-08-16T13:25:30;3.55;;;3.25;;
11646;SDS011;5880;52.342;9.662;2022-08-16T13:27:59;3.95;;;3.38;;
11646;SDS011;5880;52.342;9.662;2022-08-16T13:30:26;3.60;;;3.22;;
11646;SDS011;5880;52.342;9.662;2022-08-16T13:32:54;3.45;;;3.22;;
11646;SDS011;5880;52.342;9.662;2022-08-16T13:35:21;3.45;;;3.25;;
11646;SDS011;5880;52.342;9.662;2022-08-16T13:37:48;3.78;;;3.47;;
11646;SDS011;5880;52.342;9.662;2022-08-16T13:40:15;3.95;;;3.65;;
11646;SDS011;5880;52.342;9.662;2022-08-16T13:42:41;3.72;;;3.42;;
11646;SDS011;5880;52.342;9.662;2022-08-16T13:45:08;3.70;;;3.40;;
11646;SDS011;5880;52.342;9.662;2022-08-16T13:47:37;3.35;;;3.15;;
11646;SDS011;5880;52.342;9.662;2022-08-16T13:50:03;3.60;;;3.03;;
11646;SDS011;5880;52.342;9.662;2022-08-16T13:52:32;3.35;;;3.15;;
11646;SDS011;5880;52.342;9.662;2022-08-16T13:54:58;3.80;;;3.50;;
11646;SDS011;5880;52.342;9.662;2022-08-16T13:57:24;3.53;;;3.22;;
11646;SDS011;5880;52.342;9.662;2022-08-16T13:59:51;3.53;;;3.33;;
11646;SDS011;5880;52.342;9.662;2022-08-16T14:02:16;3.92;;;3.53;;
11646;SDS011;5880;52.342;9.662;2022-08-16T14:04:42;3.63;;;3.33;;
11646;SDS011;5880;52.342;9.662;2022-08-16T14:07:09;3.92;;;3.60;;
11646;SDS011;5880;52.342;9.662;2022-08-16T14:09:38;3.88;;;3.58;;
11646;SDS011;5880;52.342;9.662;2022-08-16T14:12:05;3.80;;;3.50;;
11646;SDS011;5880;52.342;9.662;2022-08-16T14:14:43;3.38;;;3.08;;
11646;SDS011;5880;52.342;9.662;2022-08-16T14:17:10;3.60;;;3.30;;
11646;SDS011;5880;52.342;9.662;2022-08-16T14:19:36;3.30;;;3.10;;
11646;SDS011;5880;52.342;9.662;2022-08-16T14:22:01;3.60;;;3.30;;
11646;SDS011;5880;52.342;9.662;2022-08-16T14:24:27;3.47;;;3.10;;
11646;SDS011;5880;52.342;9.662;2022-08-16T14:26:53;3.35;;;3.15;;
11646;SDS011;5880;52.342;9.662;2022-08-16T14:29:19;3.30;;;3.10;;
11646;SDS011;5880;52.342;9.662;2022-08-16T14:31:45;3.40;;;3.17;;
11646;SDS011;5880;52.342;9.662;2022-08-16T14:34:10;3.25;;;3.05;;
11646;SDS011;5880;52.342;9.662;2022-08-16T14:36:36;3.97;;;3.60;;
11646;SDS011;5880;52.342;9.662;2022-08-16T14:39:02;3.35;;;3.10;;
11646;SDS011;5880;52.342;9.662;2022-08-16T14:41:28;3.17;;;2.95;;
11646;SDS011;5880;52.342;9.662;2022-08-16T14:43:55;3.20;;;2.90;;
11646;SDS011;5880;52.342;9.662;2022-08-16T14:46:21;2.95;;;2.75;;
11646;SDS011;5880;52.342;9.662;2022-08-16T14:48:47;3.00;;;2.80;;
11646;SDS011;5880;52.342;9.662;2022-08-16T14:51:13;3.35;;;3.00;;
11646;SDS011;5880;52.342;9.662;2022-08-16T14:53:39;2.90;;;2.70;;
11646;SDS011;5880;52.342;9.662;2022-08-16T14:56:06;2.92;;;2.72;;
11646;SDS011;5880;52.342;9.662;2022-08-16T14:58:32;3.20;;;2.90;;
11646;SDS011;5880;52.342;9.662;2022-08-16T15:00:58;2.72;;;2.53;;
11646;SDS011;5880;52.342;9.662;2022-08-16T15:03:25;3.10;;;2.90;;
11646;SDS011;5880;52.342;9.662;2022-08-16T15:05:52;2.83;;;2.63;;